sensor_id;sensor_type;location;lat;lon;timestamp;pressure;altitude;pressure_sealevel;temperature;humidity
47706;BME280;33471;52.104;1.318;2023-02-13T00:01:08;103331.07;;;11.12;40.19
47706;BME280;33471;52.104;1.318;2023-02-13T00:03:35;103333.30;;;11.00;40.19
47706;BME280;33471;52.104;1.318;2023-02-13T00:06:03;103331.18;;;11.13;40.22
47706;BME280;33471;52.104;1.318;2023-02-13T00:08:31;103329.62;;;11.25;40.06
47706;BME280;33471;52.104;1.318;2023-02-13T00:10:58;103327.68;;;11.20;40.15
47706;BME280;33471;52.104;1.318;2023-02-13T00:13:25;103324.02;;;11.23;40.26
47706;BME280;33471;52.104;1.318;2023-02-13T00:15:56;103323.48;;;11.55;39.78
47706;BME280;33471;52.104;1.318;2023-02-13T00:18:23;103318.85;;;11.20;39.69
47706;BME280;33471;52.104;1.318;2023-02-13T00:20:59;103318.48;;;10.86;39.81
47706;BME280;33471;52.104;1.318;2023-02-13T00:23:29;103326.14;;;10.78;40.80
47706;BME280;33471;52.104;1.318;2023-02-13T00:25:58;103330.24;;;10.64;40.97
47706;BME280;33471;52.104;1.318;2023-02-13T00:28:25;103330.78;;;10.70;41.06
47706;BME280;33471;52.104;1.318;2023-02-13T00:30:53;103324.69;;;10.96;40.35
47706;BME280;33471;52.104;1.318;2023-02-13T00:33:20;103326.00;;;10.56;40.68
47706;BME280;33471;52.104;1.318;2023-02-13T00:35:47;103321.85;;;10.73;40.75
47706;BME280;33471;52.104;1.318;2023-02-13T00:38:16;103323.69;;;10.15;40.99
47706;BME280;33471;52.104;1.318;2023-02-13T00:40:43;103322.65;;;9.87;41.72
47706;BME280;33471;52.104;1.318;2023-02-13T00:43:10;103320.84;;;10.61;41.13
47706;BME280;33471;52.104;1.318;2023-02-13T00:45:37;103320.16;;;10.21;41.31
47706;BME280;33471;52.104;1.318;2023-02-13T00:48:05;103316.73;;;10.81;40.69
47706;BME280;33471;52.104;1.318;2023-02-13T00:50:32;103316.98;;;10.82;40.49
47706;BME280;33471;52.104;1.318;2023-02-13T00:53:00;103320.97;;;9.93;40.38
47706;BME280;33471;52.104;1.318;2023-02-13T00:55:27;103315.65;;;10.93;39.92
47706;BME280;33471;52.104;1.318;2023-02-13T00:57:54;103320.34;;;10.47;40.20
47706;BME280;33471;52.104;1.318;2023-02-13T01:00:22;103312.32;;;10.60;40.01
47706;BME280;33471;52.104;1.318;2023-02-13T01:02:49;103313.30;;;10.59;39.85
47706;BME280;33471;52.104;1.318;2023-02-13T01:05:17;103315.59;;;10.17;39.56
47706;BME280;33471;52.104;1.318;2023-02-13T01:07:44;103312.13;;;10.69;39.35
47706;BME280;33471;52.104;1.318;2023-02-13T01:10:12;103313.33;;;10.84;39.68
47706;BME280;33471;52.104;1.318;2023-02-13T01:12:39;103313.53;;;10.63;39.77
47706;BME280;33471;52.104;1.318;2023-02-13T01:15:07;103309.90;;;9.90;41.01
47706;BME280;33471;52.104;1.318;2023-02-13T01:17:35;103311.18;;;9.72;40.73
47706;BME280;33471;52.104;1.318;2023-02-13T01:20:02;103309.62;;;10.38;40.45
47706;BME280;33471;52.104;1.318;2023-02-13T01:22:30;103304.72;;;10.31;40.43
47706;BME280;33471;52.104;1.318;2023-02-13T01:24:57;103303.79;;;9.85;41.16
47706;BME280;33471;52.104;1.318;2023-02-13T01:27:24;103305.76;;;9.62;41.41
47706;BME280;33471;52.104;1.318;2023-02-13T01:29:51;103300.81;;;9.83;40.89
47706;BME280;33471;52.104;1.318;2023-02-13T01:32:18;103297.58;;;10.00;40.80
47706;BME280;33471;52.104;1.318;2023-02-13T01:34:46;103298.88;;;10.30;40.27
47706;BME280;33471;52.104;1.318;2023-02-13T01:37:14;103293.79;;;10.96;39.98
47706;BME280;33471;52.104;1.318;2023-02-13T01:39:41;103292.93;;;10.64;39.49
47706;BME280;33471;52.104;1.318;2023-02-13T01:42:15;103291.32;;;10.88;39.21
47706;BME280;33471;52.104;1.318;2023-02-13T01:44:52;103288.70;;;11.03;39.14
47706;BME280;33471;52.104;1.318;2023-02-13T01:47:24;103283.47;;;10.93;38.84
47706;BME280;33471;52.104;1.318;2023-02-13T01:49:59;103291.25;;;10.68;40.46
47706;BME280;33471;52.104;1.318;2023-02-13T01:52:29;103296.84;;;10.03;40.51
47706;BME280;33471;52.104;1.318;2023-02-13T01:54:56;103290.50;;;10.71;39.42
47706;BME280;33471;52.104;1.318;2023-02-13T01:57:25;103289.81;;;10.79;39.30
47706;BME280;33471;52.104;1.318;2023-02-13T01:59:57;103290.43;;;10.39;39.87
47706;BME280;33471;52.104;1.318;2023-02-13T02:02:26;103294.60;;;8.95;41.41
47706;BME280;33471;52.104;1.318;2023-02-13T02:04:55;103293.33;;;10.10;41.32
47706;BME280;33471;52.104;1.318;2023-02-13T02:07:25;103289.76;;;10.21;40.50
47706;BME280;33471;52.104;1.318;2023-02-13T02:09:55;103288.69;;;10.42;39.65
47706;BME280;33471;52.104;1.318;2023-02-13T02:12:28;103282.74;;;10.69;39.29
47706;BME280;33471;52.104;1.318;2023-02-13T02:14:59;103281.77;;;11.08;39.17
47706;BME280;33471;52.104;1.318;2023-02-13T02:17:27;103280.88;;;10.73;38.98
47706;BME280;33471;52.104;1.318;2023-02-13T02:20:02;103282.56;;;10.82;38.78
47706;BME280;33471;52.104;1.318;2023-02-13T02:22:56;103280.74;;;11.39;38.15
47706;BME280;33471;52.104;1.318;2023-02-13T02:25:49;103280.24;;;11.15;38.39
47706;BME280;33471;52.104;1.318;2023-02-13T02:28:40;103276.34;;;10.89;38.13
47706;BME280;33471;52.104;1.318;2023-02-13T02:31:56;103273.12;;;11.93;37.91
47706;BME280;33471;52.104;1.318;2023-02-13T02:34:36;103270.04;;;11.19;38.15
47706;BME280;33471;52.104;1.318;2023-02-13T02:37:20;103267.97;;;11.24;38.81
47706;BME280;33471;52.104;1.318;2023-02-13T02:40:02;103267.02;;;11.16;38.88
47706;BME280;33471;52.104;1.318;2023-02-13T02:42:42;103268.21;;;11.22;38.90
47706;BME280;33471;52.104;1.318;2023-02-13T02:45:18;103265.38;;;11.51;38.26
47706;BME280;33471;52.104;1.318;2023-02-13T02:47:53;103259.88;;;11.43;38.42
47706;BME280;33471;52.104;1.318;2023-02-13T02:50:30;103256.97;;;11.15;38.33
47706;BME280;33471;52.104;1.318;2023-02-13T02:53:07;103252.66;;;11.58;38.12
47706;BME280;33471;52.104;1.318;2023-02-13T02:55:43;103247.98;;;11.50;37.75
47706;BME280;33471;52.104;1.318;2023-02-13T02:58:17;103246.90;;;11.47;38.10
47706;BME280;33471;52.104;1.318;2023-02-13T03:00:47;103242.10;;;11.46;38.13
47706;BME280;33471;52.104;1.318;2023-02-13T03:03:19;103240.04;;;10.96;38.39
47706;BME280;33471;52.104;1.318;2023-02-13T03:05:47;103238.19;;;11.15;38.77
47706;BME280;33471;52.104;1.318;2023-02-13T03:08:16;103234.26;;;10.83;39.05
47706;BME280;33471;52.104;1.318;2023-02-13T03:10:46;103235.26;;;10.43;39.55
47706;BME280;33471;52.104;1.318;2023-02-13T03:13:16;103234.00;;;10.56;39.83
47706;BME280;33471;52.104;1.318;2023-02-13T03:15:58;103236.29;;;10.77;39.38
47706;BME280;33471;52.104;1.318;2023-02-13T03:18:26;103233.54;;;10.67;39.17
47706;BME280;33471;52.104;1.318;2023-02-13T03:21:02;103234.63;;;10.98;39.38
47706;BME280;33471;52.104;1.318;2023-02-13T03:23:40;103233.57;;;10.90;39.23
47706;BME280;33471;52.104;1.318;2023-02-13T03:26:27;103231.41;;;10.82;39.36
47706;BME280;33471;52.104;1.318;2023-02-13T03:29:03;103232.51;;;10.89;39.20
47706;BME280;33471;52.104;1.318;2023-02-13T03:31:37;103232.89;;;10.64;39.55
47706;BME280;33471;52.104;1.318;2023-02-13T03:34:13;103231.33;;;11.51;38.81
47706;BME280;33471;52.104;1.318;2023-02-13T03:36:46;103238.11;;;10.70;39.12
47706;BME280;33471;52.104;1.318;2023-02-13T03:39:18;103236.64;;;11.05;38.98
47706;BME280;33471;52.104;1.318;2023-02-13T03:41:51;103237.15;;;10.77;39.28
47706;BME280;33471;52.104;1.318;2023-02-13T03:44:24;103237.09;;;10.92;39.24
47706;BME280;33471;52.104;1.318;2023-02-13T03:46:56;103235.99;;;11.57;38.57
47706;BME280;33471;52.104;1.318;2023-02-13T03:49:28;103238.24;;;10.87;39.10
47706;BME280;33471;52.104;1.318;2023-02-13T03:52:00;103238.78;;;10.65;39.21
47706;BME280;33471;52.104;1.318;2023-02-13T03:54:32;103241.34;;;10.28;39.42
47706;BME280;33471;52.104;1.318;2023-02-13T03:57:01;103239.49;;;10.10;40.12
47706;BME280;33471;52.104;1.318;2023-02-13T03:59:31;103240.29;;;10.88;38.93
47706;BME280;33471;52.104;1.318;2023-02-13T04:02:04;103240.92;;;10.25;40.18
47706;BME280;33471;52.104;1.318;2023-02-13T04:04:42;103240.92;;;10.60;39.83
47706;BME280;33471;52.104;1.318;2023-02-13T04:07:14;103241.78;;;10.99;40.18
47706;BME280;33471;52.104;1.318;2023-02-13T04:09:43;103243.27;;;10.94;39.79
47706;BME280;33471;52.104;1.318;2023-02-13T04:12:15;103241.41;;;10.28;40.23
47706;BME280;33471;52.104;1.318;2023-02-13T04:14:49;103244.65;;;10.71;39.52
47706;BME280;33471;52.104;1.318;2023-02-13T04:17:23;103244.60;;;10.64;39.62
47706;BME280;33471;52.104;1.318;2023-02-13T04:19:54;103243.13;;;11.05;39.34
47706;BME280;33471;52.104;1.318;2023-02-13T04:22:21;103240.48;;;11.08;39.25
47706;BME280;33471;52.104;1.318;2023-02-13T04:24:48;103235.10;;;11.11;38.95
47706;BME280;33471;52.104;1.318;2023-02-13T04:27:16;103233.71;;;11.29;38.81
47706;BME280;33471;52.104;1.318;2023-02-13T04:29:44;103235.06;;;11.52;38.67
47706;BME280;33471;52.104;1.318;2023-02-13T04:32:11;103234.27;;;11.54;38.64
47706;BME280;33471;52.104;1.318;2023-02-13T04:34:38;103232.53;;;11.36;38.57
47706;BME280;33471;52.104;1.318;2023-02-13T04:37:06;103232.48;;;11.05;38.72
47706;BME280;33471;52.104;1.318;2023-02-13T04:39:33;103230.10;;;11.15;38.56
47706;BME280;33471;52.104;1.318;2023-02-13T04:42:01;103232.88;;;11.24;38.25
47706;BME280;33471;52.104;1.318;2023-02-13T04:44:28;103234.53;;;11.55;38.29
47706;BME280;33471;52.104;1.318;2023-02-13T04:46:56;103238.37;;;11.53;38.37
47706;BME280;33471;52.104;1.318;2023-02-13T04:49:23;103232.22;;;11.77;38.09
47706;BME280;33471;52.104;1.318;2023-02-13T04:51:50;103234.28;;;11.98;38.54
47706;BME280;33471;52.104;1.318;2023-02-13T04:54:17;103234.27;;;11.83;38.22
47706;BME280;33471;52.104;1.318;2023-02-13T04:56:45;103237.29;;;11.87;38.49
47706;BME280;33471;52.104;1.318;2023-02-13T04:59:13;103238.75;;;11.94;38.11
47706;BME280;33471;52.104;1.318;2023-02-13T05:01:40;103239.25;;;12.16;38.26
47706;BME280;33471;52.104;1.318;2023-02-13T05:04:08;103240.31;;;11.48;38.63
47706;BME280;33471;52.104;1.318;2023-02-13T05:06:35;103238.15;;;11.85;38.45
47706;BME280;33471;52.104;1.318;2023-02-13T05:09:02;103237.17;;;11.68;38.17
47706;BME280;33471;52.104;1.318;2023-02-13T05:11:29;103236.60;;;11.53;38.71
47706;BME280;33471;52.104;1.318;2023-02-13T05:13:57;103235.51;;;11.50;38.51
47706;BME280;33471;52.104;1.318;2023-02-13T05:16:24;103237.99;;;11.39;38.29
47706;BME280;33471;52.104;1.318;2023-02-13T05:18:52;103236.74;;;11.47;38.32
47706;BME280;33471;52.104;1.318;2023-02-13T05:21:18;103231.71;;;11.66;38.25
47706;BME280;33471;52.104;1.318;2023-02-13T05:23:45;103230.71;;;9.72;40.68
47706;BME280;33471;52.104;1.318;2023-02-13T05:26:12;103227.38;;;11.28;38.70
47706;BME280;33471;52.104;1.318;2023-02-13T05:28:39;103229.28;;;11.11;38.95
47706;BME280;33471;52.104;1.318;2023-02-13T05:31:06;103226.92;;;11.56;39.09
47706;BME280;33471;52.104;1.318;2023-02-13T05:33:34;103225.11;;;11.56;39.27
47706;BME280;33471;52.104;1.318;2023-02-13T05:36:01;103222.71;;;11.54;38.87
47706;BME280;33471;52.104;1.318;2023-02-13T05:38:28;103222.49;;;11.41;38.59
47706;BME280;33471;52.104;1.318;2023-02-13T05:40:58;103217.10;;;11.44;39.06
47706;BME280;33471;52.104;1.318;2023-02-13T05:43:25;103216.21;;;11.15;39.43
47706;BME280;33471;52.104;1.318;2023-02-13T05:46:00;103217.60;;;11.26;39.82
47706;BME280;33471;52.104;1.318;2023-02-13T05:48:27;103216.62;;;10.84;39.94
47706;BME280;33471;52.104;1.318;2023-02-13T05:50:55;103216.44;;;10.53;40.33
47706;BME280;33471;52.104;1.318;2023-02-13T05:53:23;103213.60;;;10.89;40.13
47706;BME280;33471;52.104;1.318;2023-02-13T05:55:50;103212.15;;;11.38;40.07
47706;BME280;33471;52.104;1.318;2023-02-13T05:58:18;103211.83;;;11.02;40.07
47706;BME280;33471;52.104;1.318;2023-02-13T06:00:46;103211.55;;;11.58;39.94
47706;BME280;33471;52.104;1.318;2023-02-13T06:03:14;103211.72;;;11.05;40.13
47706;BME280;33471;52.104;1.318;2023-02-13T06:05:42;103214.19;;;10.89;39.98
47706;BME280;33471;52.104;1.318;2023-02-13T06:08:09;103211.94;;;10.88;39.86
47706;BME280;33471;52.104;1.318;2023-02-13T06:10:37;103207.98;;;11.17;39.97
47706;BME280;33471;52.104;1.318;2023-02-13T06:13:04;103206.30;;;10.58;39.92
47706;BME280;33471;52.104;1.318;2023-02-13T06:15:31;103211.08;;;10.70;39.93
47706;BME280;33471;52.104;1.318;2023-02-13T06:17:59;103211.82;;;10.87;39.76
47706;BME280;33471;52.104;1.318;2023-02-13T06:20:27;103214.32;;;10.61;40.43
47706;BME280;33471;52.104;1.318;2023-02-13T06:22:54;103214.95;;;10.62;40.05
47706;BME280;33471;52.104;1.318;2023-02-13T06:25:22;103212.01;;;10.69;40.60
47706;BME280;33471;52.104;1.318;2023-02-13T06:27:49;103212.92;;;10.67;40.73
47706;BME280;33471;52.104;1.318;2023-02-13T06:30:17;103212.96;;;10.75;40.71
47706;BME280;33471;52.104;1.318;2023-02-13T06:32:46;103209.37;;;10.44;40.39
47706;BME280;33471;52.104;1.318;2023-02-13T06:35:15;103208.51;;;10.87;39.75
47706;BME280;33471;52.104;1.318;2023-02-13T06:37:43;103211.20;;;10.61;40.29
47706;BME280;33471;52.104;1.318;2023-02-13T06:40:13;103212.34;;;10.57;40.50
47706;BME280;33471;52.104;1.318;2023-02-13T06:42:41;103207.87;;;10.85;39.88
47706;BME280;33471;52.104;1.318;2023-02-13T06:45:09;103209.71;;;11.01;39.47
47706;BME280;33471;52.104;1.318;2023-02-13T06:47:40;103211.09;;;11.16;39.78
47706;BME280;33471;52.104;1.318;2023-02-13T06:50:08;103212.40;;;11.20;39.77
47706;BME280;33471;52.104;1.318;2023-02-13T06:52:35;103211.45;;;11.85;39.99
47706;BME280;33471;52.104;1.318;2023-02-13T06:55:03;103213.43;;;11.09;40.48
47706;BME280;33471;52.104;1.318;2023-02-13T06:57:31;103212.67;;;11.13;40.27
47706;BME280;33471;52.104;1.318;2023-02-13T06:59:59;103210.82;;;11.13;39.66
47706;BME280;33471;52.104;1.318;2023-02-13T07:02:27;103211.03;;;11.36;39.53
47706;BME280;33471;52.104;1.318;2023-02-13T07:04:55;103214.14;;;10.77;40.04
47706;BME280;33471;52.104;1.318;2023-02-13T07:07:22;103211.61;;;10.79;40.25
47706;BME280;33471;52.104;1.318;2023-02-13T07:09:50;103213.20;;;11.20;40.06
47706;BME280;33471;52.104;1.318;2023-02-13T07:12:17;103211.94;;;10.87;39.97
47706;BME280;33471;52.104;1.318;2023-02-13T07:14:44;103215.29;;;11.24;39.61
47706;BME280;33471;52.104;1.318;2023-02-13T07:17:11;103216.26;;;11.06;39.85
47706;BME280;33471;52.104;1.318;2023-02-13T07:19:39;103214.27;;;11.18;39.36
47706;BME280;33471;52.104;1.318;2023-02-13T07:22:06;103213.77;;;11.00;39.97
47706;BME280;33471;52.104;1.318;2023-02-13T07:24:33;103215.98;;;10.32;40.76
47706;BME280;33471;52.104;1.318;2023-02-13T07:27:01;103218.40;;;10.81;40.07
47706;BME280;33471;52.104;1.318;2023-02-13T07:29:27;103214.64;;;11.32;39.87
47706;BME280;33471;52.104;1.318;2023-02-13T07:31:55;103213.97;;;10.75;40.54
47706;BME280;33471;52.104;1.318;2023-02-13T07:34:22;103217.55;;;10.30;40.90
47706;BME280;33471;52.104;1.318;2023-02-13T07:36:50;103213.99;;;10.74;40.48
47706;BME280;33471;52.104;1.318;2023-02-13T07:39:17;103214.04;;;10.61;40.05
47706;BME280;33471;52.104;1.318;2023-02-13T07:41:45;103214.31;;;11.12;40.26
47706;BME280;33471;52.104;1.318;2023-02-13T07:44:12;103213.96;;;10.94;40.13
47706;BME280;33471;52.104;1.318;2023-02-13T07:46:40;103216.02;;;11.16;39.95
47706;BME280;33471;52.104;1.318;2023-02-13T07:49:08;103217.65;;;10.60;39.43
47706;BME280;33471;52.104;1.318;2023-02-13T07:51:35;103217.37;;;11.01;39.15
47706;BME280;33471;52.104;1.318;2023-02-13T07:54:03;103218.37;;;10.74;40.44
47706;BME280;33471;52.104;1.318;2023-02-13T07:56:30;103220.29;;;10.89;39.77
47706;BME280;33471;52.104;1.318;2023-02-13T07:58:57;103218.08;;;10.97;39.92
47706;BME280;33471;52.104;1.318;2023-02-13T08:01:24;103219.89;;;10.30;41.15
47706;BME280;33471;52.104;1.318;2023-02-13T08:03:51;103220.09;;;10.61;40.52
47706;BME280;33471;52.104;1.318;2023-02-13T08:06:19;103217.95;;;10.88;40.26
47706;BME280;33471;52.104;1.318;2023-02-13T08:08:47;103218.77;;;10.67;40.43
47706;BME280;33471;52.104;1.318;2023-02-13T08:11:27;103216.41;;;11.01;40.68
47706;BME280;33471;52.104;1.318;2023-02-13T08:13:57;103216.24;;;10.73;40.32
47706;BME280;33471;52.104;1.318;2023-02-13T08:16:24;103217.25;;;11.16;39.95
47706;BME280;33471;52.104;1.318;2023-02-13T08:18:52;103215.83;;;10.88;39.56
47706;BME280;33471;52.104;1.318;2023-02-13T08:21:20;103217.31;;;10.52;40.07
47706;BME280;33471;52.104;1.318;2023-02-13T08:23:47;103221.74;;;11.01;39.84
47706;BME280;33471;52.104;1.318;2023-02-13T08:26:15;103220.17;;;10.81;39.39
47706;BME280;33471;52.104;1.318;2023-02-13T08:28:42;103221.10;;;11.51;39.16
47706;BME280;33471;52.104;1.318;2023-02-13T08:31:10;103219.77;;;11.35;39.32
47706;BME280;33471;52.104;1.318;2023-02-13T08:33:38;103220.24;;;11.49;39.09
47706;BME280;33471;52.104;1.318;2023-02-13T08:36:06;103220.10;;;11.42;39.56
47706;BME280;33471;52.104;1.318;2023-02-13T08:38:33;103220.56;;;11.75;39.60
47706;BME280;33471;52.104;1.318;2023-02-13T08:41:01;103218.73;;;12.05;38.92
47706;BME280;33471;52.104;1.318;2023-02-13T08:43:28;103219.87;;;11.99;39.03
47706;BME280;33471;52.104;1.318;2023-02-13T08:45:58;103218.87;;;11.86;39.25
47706;BME280;33471;52.104;1.318;2023-02-13T08:48:26;103214.89;;;11.89;39.19
47706;BME280;33471;52.104;1.318;2023-02-13T08:50:53;103212.09;;;11.48;39.01
47706;BME280;33471;52.104;1.318;2023-02-13T08:53:21;103211.60;;;12.11;38.13
47706;BME280;33471;52.104;1.318;2023-02-13T08:55:52;103213.01;;;11.56;38.53
47706;BME280;33471;52.104;1.318;2023-02-13T08:58:20;103214.07;;;11.67;38.41
47706;BME280;33471;52.104;1.318;2023-02-13T09:00:47;103212.45;;;12.13;38.02
47706;BME280;33471;52.104;1.318;2023-02-13T09:03:14;103217.21;;;11.67;38.50
47706;BME280;33471;52.104;1.318;2023-02-13T09:05:42;103216.73;;;11.54;38.34
47706;BME280;33471;52.104;1.318;2023-02-13T09:08:10;103220.69;;;11.18;38.36
47706;BME280;33471;52.104;1.318;2023-02-13T09:10:38;103214.29;;;12.16;38.08
47706;BME280;33471;52.104;1.318;2023-02-13T09:13:05;103210.00;;;11.89;38.38
47706;BME280;33471;52.104;1.318;2023-02-13T09:15:33;103206.19;;;12.12;38.01
47706;BME280;33471;52.104;1.318;2023-02-13T09:18:00;103207.15;;;12.25;38.02
47706;BME280;33471;52.104;1.318;2023-02-13T09:20:27;103206.00;;;12.00;38.14
47706;BME280;33471;52.104;1.318;2023-02-13T09:22:55;103204.13;;;11.92;38.28
47706;BME280;33471;52.104;1.318;2023-02-13T09:25:22;103205.58;;;11.40;38.16
47706;BME280;33471;52.104;1.318;2023-02-13T09:27:49;103203.67;;;11.64;38.82
47706;BME280;33471;52.104;1.318;2023-02-13T09:30:17;103204.22;;;11.91;38.30
47706;BME280;33471;52.104;1.318;2023-02-13T09:32:45;103202.21;;;11.78;38.62
47706;BME280;33471;52.104;1.318;2023-02-13T09:35:12;103204.07;;;12.03;38.46
47706;BME280;33471;52.104;1.318;2023-02-13T09:37:39;103201.23;;;12.25;38.41
47706;BME280;33471;52.104;1.318;2023-02-13T09:40:17;103202.51;;;12.01;38.34
47706;BME280;33471;52.104;1.318;2023-02-13T09:42:47;103203.18;;;11.49;39.37
47706;BME280;33471;52.104;1.318;2023-02-13T09:45:16;103204.38;;;11.41;39.44
47706;BME280;33471;52.104;1.318;2023-02-13T09:47:47;103204.54;;;11.66;39.57
47706;BME280;33471;52.104;1.318;2023-02-13T09:50:18;103202.91;;;11.26;40.37
47706;BME280;33471;52.104;1.318;2023-02-13T09:52:49;103205.89;;;10.32;40.72
47706;BME280;33471;52.104;1.318;2023-02-13T09:55:19;103207.58;;;10.44;40.88
47706;BME280;33471;52.104;1.318;2023-02-13T09:57:53;103208.91;;;11.10;40.48
47706;BME280;33471;52.104;1.318;2023-02-13T10:00:28;103211.11;;;11.30;40.40
47706;BME280;33471;52.104;1.318;2023-02-13T10:03:12;103213.03;;;11.28;40.04
47706;BME280;33471;52.104;1.318;2023-02-13T10:05:47;103215.48;;;11.33;40.30
47706;BME280;33471;52.104;1.318;2023-02-13T10:08:26;103216.24;;;10.45;40.91
47706;BME280;33471;52.104;1.318;2023-02-13T10:11:05;103214.17;;;10.83;40.79
47706;BME280;33471;52.104;1.318;2023-02-13T10:13:54;103208.23;;;11.01;40.16
47706;BME280;33471;52.104;1.318;2023-02-13T10:16:29;103204.07;;;11.24;40.15
47706;BME280;33471;52.104;1.318;2023-02-13T10:19:04;103204.73;;;10.99;41.16
47706;BME280;33471;52.104;1.318;2023-02-13T10:21:43;103206.87;;;11.18;41.72
47706;BME280;33471;52.104;1.318;2023-02-13T10:24:15;103211.27;;;10.78;42.32
47706;BME280;33471;52.104;1.318;2023-02-13T10:26:46;103213.79;;;10.71;41.41
47706;BME280;33471;52.104;1.318;2023-02-13T10:29:18;103211.24;;;10.84;41.51
47706;BME280;33471;52.104;1.318;2023-02-13T10:31:48;103209.51;;;11.12;41.24
47706;BME280;33471;52.104;1.318;2023-02-13T10:34:21;103210.62;;;11.00;40.99
47706;BME280;33471;52.104;1.318;2023-02-13T10:36:51;103209.63;;;11.35;41.63
47706;BME280;33471;52.104;1.318;2023-02-13T10:39:22;103208.27;;;10.94;41.64
47706;BME280;33471;52.104;1.318;2023-02-13T10:41:52;103206.59;;;10.83;41.15
47706;BME280;33471;52.104;1.318;2023-02-13T10:44:31;103206.02;;;10.91;41.96
47706;BME280;33471;52.104;1.318;2023-02-13T10:47:08;103202.43;;;11.41;41.12
47706;BME280;33471;52.104;1.318;2023-02-13T10:49:51;103199.48;;;11.37;40.34
47706;BME280;33471;52.104;1.318;2023-02-13T10:52:31;103201.96;;;11.05;40.37
47706;BME280;33471;52.104;1.318;2023-02-13T10:55:17;103202.38;;;11.34;40.73
47706;BME280;33471;52.104;1.318;2023-02-13T10:58:00;103200.09;;;11.44;40.72
47706;BME280;33471;52.104;1.318;2023-02-13T11:00:34;103194.39;;;11.21;40.82
47706;BME280;33471;52.104;1.318;2023-02-13T11:03:03;103189.96;;;11.97;39.87
47706;BME280;33471;52.104;1.318;2023-02-13T11:05:34;103188.91;;;11.16;41.16
47706;BME280;33471;52.104;1.318;2023-02-13T11:08:04;103185.69;;;11.76;40.06
47706;BME280;33471;52.104;1.318;2023-02-13T11:10:42;103182.93;;;11.35;40.56
47706;BME280;33471;52.104;1.318;2023-02-13T11:13:17;103181.46;;;11.53;40.55
47706;BME280;33471;52.104;1.318;2023-02-13T11:16:03;103181.76;;;11.15;40.56
47706;BME280;33471;52.104;1.318;2023-02-13T11:18:33;103186.75;;;11.79;40.02
47706;BME280;33471;52.104;1.318;2023-02-13T11:21:06;103182.65;;;12.07;40.14
47706;BME280;33471;52.104;1.318;2023-02-13T11:23:40;103180.91;;;12.13;39.84
47706;BME280;33471;52.104;1.318;2023-02-13T11:26:11;103175.82;;;12.28;39.25
47706;BME280;33471;52.104;1.318;2023-02-13T11:28:47;103179.24;;;11.82;40.47
47706;BME280;33471;52.104;1.318;2023-02-13T11:31:24;103177.27;;;11.64;40.27
47706;BME280;33471;52.104;1.318;2023-02-13T11:33:52;103175.44;;;12.27;39.69
47706;BME280;33471;52.104;1.318;2023-02-13T11:36:25;103174.64;;;12.09;39.21
47706;BME280;33471;52.104;1.318;2023-02-13T11:38:59;103168.41;;;11.97;39.73
47706;BME280;33471;52.104;1.318;2023-02-13T11:41:28;103169.92;;;11.97;40.11
47706;BME280;33471;52.104;1.318;2023-02-13T11:43:58;103165.48;;;12.04;40.23
47706;BME280;33471;52.104;1.318;2023-02-13T11:46:28;103158.51;;;12.28;40.35
47706;BME280;33471;52.104;1.318;2023-02-13T11:48:58;103157.21;;;11.64;41.02
47706;BME280;33471;52.104;1.318;2023-02-13T11:51:36;103150.05;;;11.90;41.02
47706;BME280;33471;52.104;1.318;2023-02-13T11:54:05;103146.81;;;11.72;40.91
47706;BME280;33471;52.104;1.318;2023-02-13T11:56:48;103153.68;;;10.82;42.17
47706;BME280;33471;52.104;1.318;2023-02-13T11:59:16;103148.68;;;11.44;41.71
47706;BME280;33471;52.104;1.318;2023-02-13T12:01:43;103146.69;;;11.80;41.18
47706;BME280;33471;52.104;1.318;2023-02-13T12:04:14;103140.62;;;11.86;40.69
47706;BME280;33471;52.104;1.318;2023-02-13T12:07:00;103140.54;;;11.49;41.71
47706;BME280;33471;52.104;1.318;2023-02-13T12:09:28;103141.21;;;11.57;41.41
47706;BME280;33471;52.104;1.318;2023-02-13T12:11:59;103139.42;;;11.20;41.72
47706;BME280;33471;52.104;1.318;2023-02-13T12:14:30;103136.57;;;11.55;41.62
47706;BME280;33471;52.104;1.318;2023-02-13T12:17:01;103136.79;;;11.20;41.88
47706;BME280;33471;52.104;1.318;2023-02-13T12:19:37;103134.25;;;11.73;41.61
47706;BME280;33471;52.104;1.318;2023-02-13T12:22:16;103128.90;;;11.66;41.96
47706;BME280;33471;52.104;1.318;2023-02-13T12:25:09;103127.27;;;11.61;41.40
47706;BME280;33471;52.104;1.318;2023-02-13T12:27:46;103121.23;;;11.73;40.75
47706;BME280;33471;52.104;1.318;2023-02-13T12:30:37;103113.57;;;12.15;40.23
47706;BME280;33471;52.104;1.318;2023-02-13T12:33:15;103116.96;;;12.62;39.39
47706;BME280;33471;52.104;1.318;2023-02-13T12:35:56;103111.32;;;12.59;39.53
47706;BME280;33471;52.104;1.318;2023-02-13T12:38:40;103110.14;;;12.17;39.42
47706;BME280;33471;52.104;1.318;2023-02-13T12:41:16;103109.61;;;11.93;40.68
47706;BME280;33471;52.104;1.318;2023-02-13T12:44:10;103107.81;;;11.91;40.22
47706;BME280;33471;52.104;1.318;2023-02-13T12:46:49;103103.66;;;12.06;40.99
47706;BME280;33471;52.104;1.318;2023-02-13T12:49:41;103101.67;;;12.18;40.83
47706;BME280;33471;52.104;1.318;2023-02-13T12:52:27;103097.69;;;11.56;41.44
47706;BME280;33471;52.104;1.318;2023-02-13T12:55:11;103099.24;;;11.97;41.74
47706;BME280;33471;52.104;1.318;2023-02-13T12:57:50;103097.05;;;11.16;42.00
47706;BME280;33471;52.104;1.318;2023-02-13T13:00:33;103096.29;;;11.90;41.17
47706;BME280;33471;52.104;1.318;2023-02-13T13:03:19;103095.52;;;11.65;40.98
47706;BME280;33471;52.104;1.318;2023-02-13T13:06:00;103098.89;;;11.88;41.83
47706;BME280;33471;52.104;1.318;2023-02-13T13:08:42;103103.91;;;11.41;41.72
47706;BME280;33471;52.104;1.318;2023-02-13T13:11:25;103093.01;;;11.51;41.83